Latest Weather Observations for Hopetoun Airport

IDV60801

Issued at 7:02 am EDT Wednesday 20 November 2019 (issued every 10 minutes, with the page automatically refreshed every 10 minutes)

About weather observations | Map of weather stations | Latest weather observations for VIC | Other Formats
Station Details ID: 077010 Name: HOPETOUN AIRPORT Lat: -35.72 Lon: 142.36 Height: 77.3 m
Data from the previous 72 hours. | See also: Recent months at Hopetoun Airport
Date/Time
EDT
Temp
°C
App
Temp
°C
Dew
Point
°C
Rel
Hum
%
Delta-T
°C
Wind Press
QNH
hPa
Press
MSL
hPa
Rain since
9am
mm
Dir  Spd
km/h
Gust
km/h
Spd
kts
Gust
kts
20/07:00am 14.9 11.1 7.5 61 3.7 ENE 17 20 9 11 - 1011.3 -
20/06:30am 13.6 10.9 7.4 66 3.0 ENE 11 13 6 7 1011.4 1011.2 0.0
20/06:00am 13.5 10.7 7.1 65 3.1 E 11 13 6 7 1011.3 1011.1 0.0
20/05:30am 14.2 11.5 7.3 63 3.4 E 11 15 6 8 1011.5 1011.3 0.0
20/05:00am 14.5 11.5 7.5 63 3.5 E 13 15 7 8 1011.2 1011.0 0.0
20/04:30am 13.5 10.8 7.5 67 2.9 E 11 13 6 7 1011.0 1010.8 0.0
20/04:00am 14.4 11.9 8.1 66 3.2 ESE 11 13 6 7 1011.3 1011.1 0.0
20/03:30am 14.8 12.7 8.3 65 3.3 ESE 9 13 5 7 1011.7 1011.5 0.0
20/03:00am 15.0 12.4 7.8 62 3.6 ESE 11 13 6 7 1011.6 1011.4 0.0
20/02:30am 15.7 12.8 8.0 60 3.9 E 13 17 7 9 1011.5 1011.3 0.0
20/02:00am 16.8 13.6 8.5 58 4.3 ESE 15 20 8 11 1012.0 1011.8 0.0
20/01:30am 17.1 14.7 8.5 57 4.4 ESE 11 15 6 8 1012.6 1012.4 0.0
20/01:00am 17.6 14.7 8.2 54 4.8 ESE 13 17 7 9 1013.1 1012.9 0.0
20/12:30am 18.8 14.2 8.2 50 5.5 SE 22 28 12 15 1012.7 1012.5 0.0
20/12:00am 19.6 15.2 7.4 45 6.2 SE 20 28 11 15 1013.6 1013.4 0.0
 
Date/Time
EDT
Temp
°C
App
Temp
°C
Dew
Point
°C
Rel
Hum
%
Delta-T
°C
Wind Press
QNH
hPa
Press
MSL
hPa
Rain since
9am
mm
Dir  Spd
km/h
Gust
km/h
Spd
kts
Gust
kts
19/11:30pm 20.4 15.9 4.4 35 7.8 SSE 17 22 9 12 1013.7 1013.5 0.0
19/11:00pm 21.4 17.8 3.1 30 8.7 S 11 13 6 7 1013.9 1013.7 0.0
19/10:30pm 21.5 18.7 3.2 30 8.7 SSE 7 11 4 6 1013.7 1013.5 0.0
19/10:00pm 22.9 20.1 3.4 28 9.4 S 7 11 4 6 1013.3 1013.1 0.0
19/09:30pm 23.3 19.9 3.8 28 9.5 SSE 11 13 6 7 1012.7 1012.5 0.0
19/09:00pm 23.9 20.3 3.2 26 10.1 SE 11 13 6 7 1012.4 1012.2 0.0
19/08:30pm 26.0 22.6 3.9 24 11.0 SSE 11 17 6 9 1012.1 1011.9 0.0
19/08:00pm 27.5 24.7 3.2 21 12.1 SSW 7 11 4 6 1011.7 1011.5 0.0
19/07:30pm 29.4 25.9 3.4 19 13.2 SW 11 15 6 8 1011.4 1011.2 0.0
19/07:00pm 29.7 25.3 2.9 18 13.5 SW 15 20 8 11 1011.2 1011.0 0.0
19/06:30pm 29.9 25.6 3.0 18 13.6 SSW 15 22 8 12 1010.9 1010.7 0.0
19/06:00pm 30.4 25.2 3.4 18 13.8 SW 20 30 11 16 1011.0 1010.8 0.0
19/05:30pm 29.9 24.7 2.2 17 13.8 SSW 19 30 10 16 1010.9 1010.7 0.0
19/05:00pm 30.5 26.1 2.7 17 14.0 SW 15 24 8 13 1010.6 1010.4 0.0
19/04:30pm 31.6 27.1 4.4 18 14.2 SW 17 28 9 15 1011.0 1010.8 0.0
19/04:00pm 30.8 25.0 4.5 19 13.7 SW 24 35 13 19 1011.3 1011.1 0.0
19/03:30pm 30.8 26.1 6.0 21 13.2 SW 20 41 11 22 1011.2 1011.0 0.0
19/03:00pm 31.2 26.6 6.3 21 13.4 WSW 20 35 11 19 1011.6 1011.4 0.0
19/02:30pm 30.0 25.3 5.3 21 13.0 SW 19 32 10 17 1011.7 1011.5 0.0
19/02:00pm 30.2 26.1 6.1 22 12.8 WSW 17 32 9 17 1012.1 1011.9 0.0
19/01:30pm 28.4 24.1 5.3 23 12.0 SW 17 28 9 15 1012.5 1012.3 0.0
19/01:00pm 28.6 23.8 4.8 22 12.3 WSW 19 28 10 15 1012.7 1012.5 0.0
19/12:30pm 27.1 22.0 2.9 21 12.0 WSW 19 26 10 14 1012.7 1012.5 0.0
19/12:00pm 27.1 22.5 3.6 22 11.8 SW 17 28 9 15 1012.9 1012.7 0.0
19/11:30am 26.1 21.4 3.4 23 11.2 SW 17 28 9 15 1012.9 1012.7 0.0
19/11:00am 25.9 21.6 3.2 23 11.2 SW 15 24 8 13 1012.9 1012.7 0.0
19/10:30am 24.8 20.4 2.9 24 10.7 WSW 15 22 8 12 1012.8 1012.6 0.0
19/10:00am 24.3 20.2 2.5 24 10.5 SSW 13 20 7 11 1012.9 1012.7 0.0
19/09:30am 22.4 18.4 3.0 28 9.3 SW 13 20 7 11 1012.8 1012.6 0.0
19/09:00am 20.5 17.8 3.7 33 8.0 SSW 7 13 4 7 1012.6 1012.4 0.0
19/08:30am 18.6 15.8 2.9 35 7.3 SSW 7 9 4 5 1012.5 1012.3 0.0
19/08:00am 16.7 13.4 2.3 38 6.5 S 9 13 5 7 1012.3 1012.1 0.0
19/07:30am 14.8 11.0 2.0 42 5.7 SSW 11 15 6 8 1012.2 1012.0 0.0
19/07:00am 11.9 8.8 1.5 49 4.4 SW 7 9 4 5 1011.9 1011.7 0.0
19/06:30am 8.2 4.9 -1.1 52 3.6 WSW 6 6 3 3 1011.5 1011.3 0.0
19/06:00am 8.2 4.8 -2.1 48 3.9 WNW 6 6 3 3 1011.2 1011.0 0.0
19/05:30am 8.4 5.4 -2.2 47 4.0 N 4 4 2 2 1010.9 1010.7 0.0
19/05:00am 9.8 7.5 -2.2 43 4.6 CALM 0 2 0 1 1010.9 1010.7 0.0
19/04:30am 11.5 8.8 0.6 47 4.5 SSW 4 4 2 2 1010.7 1010.5 0.0
19/04:00am 10.7 8.1 -1.7 42 4.8 WSW 2 2 1 1 1010.6 1010.4 0.0
19/03:30am 10.5 7.9 -1.5 43 4.7 NNW 2 4 1 2 1010.6 1010.4 0.0
19/03:00am 12.1 9.6 -0.7 41 5.2 W 2 4 1 2 1010.7 1010.5 0.0
19/02:30am 12.6 10.6 0.0 42 5.2 CALM 0 0 0 0 1010.8 1010.6 0.0
19/02:00am 13.3 11.3 -0.3 39 5.6 CALM 0 0 0 0 1010.8 1010.6 0.0
19/01:30am 13.1 11.1 -0.2 40 5.5 CALM 0 0 0 0 1011.2 1011.0 0.0
19/01:00am 15.2 12.5 0.6 37 6.3 SW 4 4 2 2 1011.4 1011.2 0.0
19/12:30am 14.5 11.2 -1.6 33 6.6 W 6 6 3 3 1011.7 1011.5 0.0
19/12:00am 16.0 12.8 -0.7 32 7.0 W 6 6 3 3 1011.7 1011.5 0.0
 
Date/Time
EDT
Temp
°C
App
Temp
°C
Dew
Point
°C
Rel
Hum
%
Delta-T
°C
Wind Press
QNH
hPa
Press
MSL
hPa
Rain since
9am
mm
Dir  Spd
km/h
Gust
km/h
Spd
kts
Gust
kts
18/11:30pm 16.6 13.5 -0.1 32 7.2 WSW 6 6 3 3 1011.9 1011.7 0.0
18/11:00pm 16.9 12.7 -0.8 30 7.5 WSW 11 11 6 6 1011.9 1011.7 0.0
18/10:30pm 19.1 15.4 -0.3 27 8.5 WSW 9 11 5 6 1011.9 1011.7 0.0
18/10:00pm 20.7 18.3 0.0 25 9.2 SSW 2 4 1 2 1011.7 1011.5 0.0
18/09:30pm 21.7 18.7 -2.2 20 10.3 SSW 4 6 2 3 1011.5 1011.3 0.0
18/09:00pm 25.3 22.2 0.0 19 11.7 SSW 6 7 3 4 1011.4 1011.2 0.0
18/08:30pm 25.5 22.1 -0.5 18 11.9 SW 7 9 4 5 1011.5 1011.3 0.0
18/08:00pm 28.5 24.3 -0.6 15 13.7 WSW 11 13 6 7 1011.4 1011.2 0.0
18/07:30pm 30.7 25.6 -1.9 12 15.2 WSW 15 22 8 12 1011.4 1011.2 0.0
18/07:00pm 31.6 25.1 -2.4 11 15.8 WSW 22 28 12 15 1011.2 1011.0 0.0
18/06:30pm 32.1 26.1 -3.3 10 16.3 WNW 19 28 10 15 1011.2 1011.0 0.0
18/06:00pm 32.1 25.7 -2.0 11 16.0 WNW 22 32 12 17 1011.4 1011.2 0.0
18/05:30pm 32.3 25.9 -1.9 11 16.1 WNW 22 32 12 17 1011.6 1011.4 0.0
18/05:00pm 31.7 24.6 -1.2 12 15.6 W 26 37 14 20 1012.1 1011.9 0.0
18/04:30pm 31.7 25.5 -0.1 13 15.4 W 22 37 12 20 1012.4 1012.2 0.0
18/04:00pm 31.4 25.6 -0.3 13 15.3 WNW 20 33 11 18 1012.7 1012.5 0.0
18/03:30pm 30.8 24.1 -0.8 13 15.0 WNW 24 37 13 20 1013.4 1013.2 0.0
18/03:00pm 29.9 23.8 0.5 15 14.2 WNW 22 35 12 19 1013.8 1013.6 0.0
18/02:30pm 29.8 24.4 1.3 16 13.9 WNW 19 26 10 14 1014.4 1014.2 0.0
18/02:00pm 29.7 25.0 1.2 16 13.9 NW 15 28 8 15 1014.9 1014.7 0.0
18/01:30pm 28.3 23.5 2.5 19 12.8 NW 17 32 9 17 1015.5 1015.3 0.0
18/01:00pm 27.5 22.3 2.6 20 12.3 NW 19 35 10 19 1015.9 1015.7 0.0
18/12:30pm 26.0 21.3 3.3 23 11.2 NNW 17 33 9 18 1016.1 1015.9 0.0
18/12:00pm 24.9 20.3 3.5 25 10.5 WNW 17 30 9 16 1016.9 1016.6 0.0
18/11:30am 24.2 19.3 4.0 27 10.0 W 19 28 10 15 1017.4 1017.2 0.0
18/11:00am 23.3 18.8 4.3 29 9.4 WNW 17 28 9 15 1017.9 1017.7 0.0
18/10:30am 22.6 18.9 4.6 31 8.9 NW 13 24 7 13 1018.2 1018.0 0.0
18/10:00am 21.3 17.7 4.8 34 8.1 NNW 13 24 7 13 1018.5 1018.3 0.0
18/09:30am 19.2 15.5 4.2 37 7.2 NNW 13 20 7 11 1018.7 1018.5 0.0
18/09:00am 18.2 14.5 4.7 41 6.5 N 13 17 7 9 1018.8 1018.6 0.0
18/08:30am 15.9 12.6 4.6 47 5.3 N 11 15 6 8 1018.7 1018.5 0.0
18/08:00am 13.7 11.4 4.6 54 4.2 NNE 6 9 3 5 1018.7 1018.5 0.0
18/07:30am 10.7 8.9 3.5 61 3.2 ENE 2 4 1 2 1018.9 1018.7 0.0
18/07:00am 7.9 5.8 2.0 66 2.4 E 2 4 1 2 1018.8 1018.6 0.0
18/06:30am 7.4 5.1 2.9 73 1.9 S 4 6 2 3 1019.0 1018.8 0.0
18/06:00am 6.2 4.0 1.1 70 2.0 SSE 2 2 1 1 1019.0 1018.8 0.0
18/05:30am 6.9 4.1 2.0 71 2.0 SSW 6 7 3 4 1018.9 1018.7 0.0
18/05:00am 7.2 3.8 2.1 70 2.1 SSW 9 9 5 5 1019.2 1019.0 0.0
18/04:30am 6.7 3.4 0.4 64 2.5 WSW 7 9 4 5 1019.0 1018.8 0.0
18/04:00am 7.6 5.4 0.8 62 2.7 WSW 2 2 1 1 1018.7 1018.5 0.0
18/03:30am 7.2 4.3 -1.0 56 3.1 NW 4 4 2 2 1018.9 1018.7 0.0
18/03:00am 8.0 6.0 0.0 57 3.1 CALM 0 0 0 0 1019.1 1018.9 0.0
18/02:30am 8.0 5.9 -1.0 53 3.5 CALM 0 0 0 0 1019.1 1018.9 0.0
18/02:00am 8.8 6.5 0.3 55 3.4 ESE 2 2 1 1 1019.3 1019.1 0.0
18/01:30am 11.1 8.7 2.4 55 3.7 SSE 4 4 2 2 1019.7 1019.5 0.0
18/01:00am 10.9 9.3 2.2 55 3.7 CALM 0 0 0 0 1020.0 1019.8 0.0
18/12:30am 11.2 8.2 1.7 52 4.0 S 7 9 4 5 1020.1 1019.9 0.0
18/12:00am 13.1 10.4 2.9 50 4.5 S 6 7 3 4 1020.1 1019.9 0.0
 
Date/Time
EDT
Temp
°C
App
Temp
°C
Dew
Point
°C
Rel
Hum
%
Delta-T
°C
Wind Press
QNH
hPa
Press
MSL
hPa
Rain since
9am
mm
Dir  Spd
km/h
Gust
km/h
Spd
kts
Gust
kts
17/11:30pm 13.4 10.6 2.3 47 4.9 S 6 7 3 4 1020.1 1019.9 0.0
17/11:00pm 14.6 11.6 2.2 43 5.5 S 7 9 4 5 1020.4 1020.2 0.0
17/10:30pm 15.9 12.9 2.3 40 6.1 S 7 9 4 5 1020.3 1020.1 0.0
17/10:00pm 15.9 12.6 2.3 40 6.1 SSW 9 11 5 6 1020.3 1020.1 0.0
17/09:30pm 14.8 11.6 0.6 38 6.1 SSW 7 9 4 5 1020.0 1019.8 0.0
17/09:00pm 16.7 13.6 1.2 35 6.8 SSW 7 9 4 5 1020.1 1019.9 0.0
17/08:30pm 18.0 14.4 0.6 31 7.7 SSW 9 11 5 6 1020.0 1019.8 0.0
17/08:00pm 20.0 14.9 1.0 28 8.6 SSW 17 20 9 11 1020.1 1019.9 0.0
17/07:30pm 20.9 15.5 1.2 27 9.0 SSW 19 22 10 12 1020.0 1019.8 0.0
17/07:00pm 21.4 16.3 0.6 25 9.4 SW 17 24 9 13 1019.6 1019.4 0.0
17/06:30pm 21.8 16.8 1.5 26 9.4 SW 17 28 9 15 1019.2 1019.0 0.0
17/06:00pm 22.1 16.8 1.7 26 9.5 WSW 19 26 10 14 1019.2 1019.0 0.0
17/05:30pm 22.6 18.0 1.6 25 9.8 WSW 15 28 8 15 1018.9 1018.7 0.0
17/05:00pm 22.4 18.6 2.0 26 9.6 SW 11 22 6 12 1019.0 1018.8 0.0
17/04:30pm 22.1 18.4 2.2 27 9.4 S 11 24 6 13 1019.2 1019.0 0.0
17/04:00pm 21.3 16.7 1.6 27 9.1 WSW 15 24 8 13 1020.1 1019.9 0.0
17/03:30pm 21.3 17.2 2.1 28 9.0 SW 13 32 7 17 1020.4 1020.2 0.0
17/03:00pm 21.1 18.2 2.4 29 8.7 WSW 7 28 4 15 1020.5 1020.3 0.0
17/02:30pm 20.4 15.2 2.3 30 8.4 WSW 19 28 10 15 1021.1 1020.9 0.0
17/02:00pm 20.3 16.0 3.1 32 8.1 WSW 15 24 8 13 1021.7 1021.5 0.0
17/01:30pm 18.4 13.7 3.1 36 7.1 SW 17 28 9 15 1021.8 1021.6 0.0
17/01:00pm 18.5 14.1 2.8 35 7.2 SSW 15 28 8 15 1022.3 1022.1 0.0
17/12:30pm 18.4 14.1 3.5 37 7.0 SW 15 24 8 13 1022.7 1022.5 0.0
17/12:00pm 17.0 12.3 3.0 39 6.4 SSW 17 26 9 14 1023.0 1022.8 0.0
17/11:30am 16.6 12.7 3.3 41 6.1 SSW 13 26 7 14 1022.9 1022.7 0.0
17/11:00am 16.8 12.5 3.5 41 6.1 S 15 24 8 13 1022.6 1022.4 0.0
17/10:30am 15.6 10.9 3.4 44 5.6 S 17 30 9 16 1023.0 1022.8 0.0
17/10:00am 15.7 11.6 4.1 46 5.4 S 15 22 8 12 1023.4 1023.2 0.0
17/09:30am 14.4 10.0 5.0 53 4.4 S 17 26 9 14 1023.0 1022.8 0.0
17/09:00am 13.2 9.0 5.9 61 3.4 S 17 24 9 13 1022.9 1022.7 0.0
17/08:30am 12.1 8.3 5.9 66 2.9 SSW 15 22 8 12 1022.9 1022.7 0.0
17/08:00am 10.4 6.9 5.4 71 2.3 SSW 13 19 7 10 1022.8 1022.6 0.0
17/07:30am 8.5 5.6 4.9 78 1.6 SSW 9 15 5 8 1022.6 1022.4 0.0

Other formats

Comma delimited format used in spreadsheet applications
http://www.bom.gov.au/fwo/IDV60801/IDV60801.94838.axf

JavaScript Object Notation format (JSON) in row-major order
http://www.bom.gov.au/fwo/IDV60801/IDV60801.94838.json

Data quality

Most of these data are generated automatically and are frequently updated. Quality checks on data are not normally performed. It is possible for incorrect values to appear. Refer to information at About Latest Weather Observations and please check the disclaimer before using these data.